Lebec, CA (93243)

7:22 AM PDT on July 23, 2016 (GMT -0700)
Lebec, CA | | Change Station

Elev 5960 ft 34.94 °N, 118.66 °W | Updated 331 days ago

Clear
Clear
84 °F
Feels Like 84 °F
N
13
Wind Variable Wind from NNW
Gusts mph

Today
High -- | Low -- °F
--% Chance of Precip.
Yesterday
High -- | Low -- °F
Precip. -- in
Pressure 29.94 in
Visibility 10.0 miles
Clouds Clear
Dew Point 35 °F
Humidity 17%
Rainfall in
Snow Depth Not available.
5:59 AM 8:04 PM
Waning Gibbous, 85% visible
METAR KSDB 231348Z AUTO 35015G27KT 10SM CLR 24/M03 A3012 RMK AO2 PK WND 34029/1311 SLP136 T02391033
Pressure 29.94 in
Visibility 10.0 miles
Clouds Clear
Dew Point 35 °F
Humidity 17%
Rainfall in
Snow Depth Not available.
5:59 AM 8:04 PM
Waning Gibbous, 85% visible
METAR KSDB 231348Z AUTO 35015G27KT 10SM CLR 24/M03 A3012 RMK AO2 PK WND 34029/1311 SLP136 T02391033

10-Day Weather Forecast

Almanac

Astronomy

Jul. 23, 2016 Rise Set
Actual Time
Civil Twilight
Nautical Twilight
Astronomical Twilight
Moon
Length of Visible Light
Length of Day
Tomorrow will be .
, % of the Moon is Illuminated

Today's Extremes

State Highs State Lows

Community

WunderPhotos

Upload Photos

1,926,821 photos uploaded!

WunderBlog® & News

Nearby

Air Quality

  Air Quality AQ Index Pollutant
Not available.

Snow Depth

Station Depth Elevation

Earthquake Activity

City Distance Mag. Time & Date
Minimum magnitude displayed is 2.5.

Coastal Water Temperatures

Place Temperature

Stations

Nearby Weather Stations

Station Location Temp. Windchill Dew Point Humidity Wind Precip. Elev Updated Type
                   

Watches & Warnings

There are currently no watches in effect.